sensor_id;sensor_type;location;lat;lon;timestamp;pressure;altitude;pressure_sealevel;temperature;humidity
4705;BME280;2366;51.332;6.610;2023-05-16T00:00:52;101528.00;;;13.23;98.81
4705;BME280;2366;51.332;6.610;2023-05-16T00:03:19;101526.91;;;13.11;99.86
4705;BME280;2366;51.332;6.610;2023-05-16T00:05:44;101531.47;;;13.09;99.51
4705;BME280;2366;51.332;6.610;2023-05-16T00:08:10;101533.19;;;13.10;100.00
4705;BME280;2366;51.332;6.610;2023-05-16T00:10:36;101535.66;;;12.83;98.67
4705;BME280;2366;51.332;6.610;2023-05-16T00:13:02;101534.91;;;12.65;98.61
4705;BME280;2366;51.332;6.610;2023-05-16T00:15:28;101536.03;;;12.61;100.00
4705;BME280;2366;51.332;6.610;2023-05-16T00:17:55;101534.50;;;12.41;99.44
4705;BME280;2366;51.332;6.610;2023-05-16T00:20:27;101548.56;;;12.59;100.00
4705;BME280;2366;51.332;6.610;2023-05-16T00:22:53;101545.28;;;12.70;100.00
4705;BME280;2366;51.332;6.610;2023-05-16T00:25:19;101537.09;;;12.43;100.00
4705;BME280;2366;51.332;6.610;2023-05-16T00:27:44;101550.19;;;12.62;100.00
4705;BME280;2366;51.332;6.610;2023-05-16T00:30:10;101547.03;;;12.55;100.00
4705;BME280;2366;51.332;6.610;2023-05-16T00:32:36;101550.13;;;12.63;99.13
4705;BME280;2366;51.332;6.610;2023-05-16T00:35:02;101540.25;;;12.65;99.21
4705;BME280;2366;51.332;6.610;2023-05-16T00:37:27;101547.34;;;12.49;100.00
4705;BME280;2366;51.332;6.610;2023-05-16T00:39:53;101555.00;;;12.55;100.00
4705;BME280;2366;51.332;6.610;2023-05-16T00:42:19;101552.78;;;12.63;100.00
4705;BME280;2366;51.332;6.610;2023-05-16T00:44:45;101558.69;;;12.52;99.59
4705;BME280;2366;51.332;6.610;2023-05-16T00:47:10;101551.75;;;12.50;100.00
4705;BME280;2366;51.332;6.610;2023-05-16T00:49:36;101542.75;;;12.52;100.00
4705;BME280;2366;51.332;6.610;2023-05-16T00:52:02;101548.47;;;12.77;100.00
4705;BME280;2366;51.332;6.610;2023-05-16T00:54:29;101553.88;;;12.75;100.00
4705;BME280;2366;51.332;6.610;2023-05-16T00:56:55;101557.16;;;12.64;100.00
4705;BME280;2366;51.332;6.610;2023-05-16T00:59:21;101549.78;;;12.53;99.66
4705;BME280;2366;51.332;6.610;2023-05-16T01:01:47;101556.13;;;12.67;100.00
4705;BME280;2366;51.332;6.610;2023-05-16T01:04:13;101550.97;;;12.64;98.45
4705;BME280;2366;51.332;6.610;2023-05-16T01:06:38;101551.16;;;12.61;99.96
4705;BME280;2366;51.332;6.610;2023-05-16T01:09:04;101553.63;;;12.64;99.21
4705;BME280;2366;51.332;6.610;2023-05-16T01:11:35;101568.97;;;12.27;100.00
4705;BME280;2366;51.332;6.610;2023-05-16T01:27:37;101579.53;;;12.12;98.80
4705;BME280;2366;51.332;6.610;2023-05-16T01:30:17;101579.88;;;12.22;99.92
4705;BME280;2366;51.332;6.610;2023-05-16T01:32:43;101581.66;;;12.06;98.79
4705;BME280;2366;51.332;6.610;2023-05-16T01:35:10;101584.47;;;12.19;100.00
4705;BME280;2366;51.332;6.610;2023-05-16T01:37:44;101585.09;;;12.08;100.00
4705;BME280;2366;51.332;6.610;2023-05-16T01:42:44;101582.38;;;11.92;99.55
4705;BME280;2366;51.332;6.610;2023-05-16T01:45:28;101587.44;;;11.97;99.44
4705;BME280;2366;51.332;6.610;2023-05-16T01:48:05;101591.19;;;11.92;99.99
4705;BME280;2366;51.332;6.610;2023-05-16T01:50:33;101595.28;;;12.00;99.93
4705;BME280;2366;51.332;6.610;2023-05-16T01:53:08;101597.94;;;12.00;98.28
4705;BME280;2366;51.332;6.610;2023-05-16T01:55:51;101608.56;;;12.00;100.00
4705;BME280;2366;51.332;6.610;2023-05-16T01:58:19;101618.22;;;11.83;99.11
4705;BME280;2366;51.332;6.610;2023-05-16T02:00:45;101619.09;;;11.84;100.00
4705;BME280;2366;51.332;6.610;2023-05-16T02:03:11;101618.81;;;11.90;99.08
4705;BME280;2366;51.332;6.610;2023-05-16T02:05:36;101621.66;;;11.85;99.51
4705;BME280;2366;51.332;6.610;2023-05-16T02:08:02;101625.13;;;11.70;98.87
4705;BME280;2366;51.332;6.610;2023-05-16T02:10:27;101627.06;;;11.66;98.76
4705;BME280;2366;51.332;6.610;2023-05-16T02:12:53;101629.34;;;11.91;99.93
4705;BME280;2366;51.332;6.610;2023-05-16T02:15:19;101621.94;;;11.63;100.00
4705;BME280;2366;51.332;6.610;2023-05-16T02:17:44;101630.97;;;11.77;98.53
4705;BME280;2366;51.332;6.610;2023-05-16T02:20:10;101634.47;;;12.12;100.00
4705;BME280;2366;51.332;6.610;2023-05-16T02:22:36;101636.66;;;12.21;99.91
4705;BME280;2366;51.332;6.610;2023-05-16T02:25:07;101633.22;;;12.19;98.09
4705;BME280;2366;51.332;6.610;2023-05-16T02:27:32;101637.84;;;12.31;99.22
4705;BME280;2366;51.332;6.610;2023-05-16T02:29:58;101634.63;;;12.09;98.40
4705;BME280;2366;51.332;6.610;2023-05-16T02:32:23;101639.72;;;12.29;100.00
4705;BME280;2366;51.332;6.610;2023-05-16T02:34:49;101653.41;;;12.55;100.00
4705;BME280;2366;51.332;6.610;2023-05-16T02:37:14;101648.28;;;12.36;99.69
4705;BME280;2366;51.332;6.610;2023-05-16T02:39:40;101645.81;;;12.16;97.71
4705;BME280;2366;51.332;6.610;2023-05-16T02:42:06;101652.28;;;12.27;99.81
4705;BME280;2366;51.332;6.610;2023-05-16T02:44:32;101651.25;;;12.30;99.23
4705;BME280;2366;51.332;6.610;2023-05-16T02:46:57;101656.72;;;12.27;98.14
4705;BME280;2366;51.332;6.610;2023-05-16T02:49:22;101660.25;;;12.10;99.14
4705;BME280;2366;51.332;6.610;2023-05-16T02:51:48;101661.00;;;11.96;98.22
4705;BME280;2366;51.332;6.610;2023-05-16T02:54:14;101664.78;;;12.25;99.94
4705;BME280;2366;51.332;6.610;2023-05-16T02:56:39;101673.47;;;12.11;99.68
4705;BME280;2366;51.332;6.610;2023-05-16T02:59:05;101682.06;;;11.64;96.57
4705;BME280;2366;51.332;6.610;2023-05-16T03:01:31;101688.09;;;11.68;100.00
4705;BME280;2366;51.332;6.610;2023-05-16T03:03:56;101688.09;;;11.68;99.08
4705;BME280;2366;51.332;6.610;2023-05-16T03:06:21;101694.56;;;11.62;98.19
4705;BME280;2366;51.332;6.610;2023-05-16T03:08:47;101694.44;;;11.29;98.14
4705;BME280;2366;51.332;6.610;2023-05-16T03:11:13;101703.22;;;11.48;98.56
4705;BME280;2366;51.332;6.610;2023-05-16T03:13:39;101706.09;;;11.26;97.04
4705;BME280;2366;51.332;6.610;2023-05-16T03:16:04;101701.91;;;11.21;99.57
4705;BME280;2366;51.332;6.610;2023-05-16T03:18:30;101708.19;;;11.20;97.55
4705;BME280;2366;51.332;6.610;2023-05-16T03:20:55;101703.16;;;11.14;97.40
4705;BME280;2366;51.332;6.610;2023-05-16T03:23:21;101704.91;;;11.15;98.89
4705;BME280;2366;51.332;6.610;2023-05-16T03:25:47;101701.06;;;11.20;99.46
4705;BME280;2366;51.332;6.610;2023-05-16T03:28:13;101713.19;;;11.26;100.00
4705;BME280;2366;51.332;6.610;2023-05-16T03:30:38;101701.50;;;11.30;98.70
4705;BME280;2366;51.332;6.610;2023-05-16T03:33:03;101709.00;;;11.39;100.00
4705;BME280;2366;51.332;6.610;2023-05-16T03:35:30;101707.38;;;11.37;98.89
4705;BME280;2366;51.332;6.610;2023-05-16T03:37:56;101702.41;;;11.29;98.05
4705;BME280;2366;51.332;6.610;2023-05-16T03:40:21;101711.16;;;11.31;98.43
4705;BME280;2366;51.332;6.610;2023-05-16T03:42:47;101718.78;;;11.20;98.06
4705;BME280;2366;51.332;6.610;2023-05-16T03:45:12;101730.00;;;11.07;97.47
4705;BME280;2366;51.332;6.610;2023-05-16T03:47:37;101728.56;;;11.00;98.75
4705;BME280;2366;51.332;6.610;2023-05-16T03:50:04;101728.13;;;10.90;99.17
4705;BME280;2366;51.332;6.610;2023-05-16T03:52:29;101736.09;;;10.90;98.11
4705;BME280;2366;51.332;6.610;2023-05-16T03:54:55;101738.94;;;10.86;97.51
4705;BME280;2366;51.332;6.610;2023-05-16T03:57:21;101736.56;;;10.80;97.71
4705;BME280;2366;51.332;6.610;2023-05-16T03:59:46;101739.09;;;10.83;99.10
4705;BME280;2366;51.332;6.610;2023-05-16T04:02:12;101745.69;;;10.74;97.01
4705;BME280;2366;51.332;6.610;2023-05-16T04:04:37;101748.94;;;10.81;98.43
4705;BME280;2366;51.332;6.610;2023-05-16T04:07:02;101748.78;;;10.84;97.06
4705;BME280;2366;51.332;6.610;2023-05-16T04:09:28;101748.66;;;10.87;97.80
4705;BME280;2366;51.332;6.610;2023-05-16T04:11:53;101758.69;;;10.80;98.73
4705;BME280;2366;51.332;6.610;2023-05-16T04:14:22;101762.34;;;10.97;98.03
4705;BME280;2366;51.332;6.610;2023-05-16T04:16:48;101759.56;;;11.00;98.45
4705;BME280;2366;51.332;6.610;2023-05-16T04:19:13;101770.81;;;11.24;99.13
4705;BME280;2366;51.332;6.610;2023-05-16T04:21:39;101766.84;;;11.51;99.15
4705;BME280;2366;51.332;6.610;2023-05-16T04:24:05;101767.44;;;11.76;98.26
4705;BME280;2366;51.332;6.610;2023-05-16T04:26:30;101781.56;;;11.76;98.31
4705;BME280;2366;51.332;6.610;2023-05-16T04:28:56;101774.75;;;12.07;97.62
4705;BME280;2366;51.332;6.610;2023-05-16T04:31:23;101778.66;;;12.17;96.78
4705;BME280;2366;51.332;6.610;2023-05-16T04:33:49;101785.91;;;12.31;97.59
4705;BME280;2366;51.332;6.610;2023-05-16T04:36:14;101784.00;;;12.50;94.74
4705;BME280;2366;51.332;6.610;2023-05-16T04:38:40;101784.13;;;12.98;96.36
4705;BME280;2366;51.332;6.610;2023-05-16T04:41:06;101785.03;;;13.46;95.06
4705;BME280;2366;51.332;6.610;2023-05-16T04:43:31;101792.34;;;13.59;94.05
4705;BME280;2366;51.332;6.610;2023-05-16T04:45:56;101798.97;;;13.51;93.20
4705;BME280;2366;51.332;6.610;2023-05-16T04:48:23;101798.75;;;13.86;93.86
4705;BME280;2366;51.332;6.610;2023-05-16T04:50:48;101800.16;;;13.62;92.88
4705;BME280;2366;51.332;6.610;2023-05-16T04:53:13;101804.31;;;14.28;92.00
4705;BME280;2366;51.332;6.610;2023-05-16T04:55:39;101809.72;;;14.56;91.28
4705;BME280;2366;51.332;6.610;2023-05-16T04:58:04;101800.09;;;15.11;91.81
4705;BME280;2366;51.332;6.610;2023-05-16T05:00:30;101795.31;;;15.72;88.85
4705;BME280;2366;51.332;6.610;2023-05-16T05:02:56;101818.38;;;16.40;88.70
4705;BME280;2366;51.332;6.610;2023-05-16T05:05:21;101816.75;;;16.38;87.18
4705;BME280;2366;51.332;6.610;2023-05-16T05:07:47;101815.94;;;17.01;85.63
4705;BME280;2366;51.332;6.610;2023-05-16T05:10:12;101817.53;;;17.41;84.02
4705;BME280;2366;51.332;6.610;2023-05-16T05:12:38;101815.66;;;18.15;87.28
4705;BME280;2366;51.332;6.610;2023-05-16T05:15:04;101824.44;;;18.17;82.15
4705;BME280;2366;51.332;6.610;2023-05-16T05:17:30;101829.53;;;18.56;86.09
4705;BME280;2366;51.332;6.610;2023-05-16T05:19:56;101832.78;;;19.06;84.96
4705;BME280;2366;51.332;6.610;2023-05-16T05:22:21;101828.41;;;18.94;81.17
4705;BME280;2366;51.332;6.610;2023-05-16T05:24:46;101830.47;;;19.24;80.85
4705;BME280;2366;51.332;6.610;2023-05-16T05:27:12;101833.25;;;19.34;79.25
4705;BME280;2366;51.332;6.610;2023-05-16T05:29:37;101831.03;;;19.50;77.38
4705;BME280;2366;51.332;6.610;2023-05-16T05:32:03;101833.25;;;19.88;74.12
4705;BME280;2366;51.332;6.610;2023-05-16T05:34:29;101832.38;;;19.99;75.18
4705;BME280;2366;51.332;6.610;2023-05-16T05:36:55;101841.16;;;20.55;76.23
4705;BME280;2366;51.332;6.610;2023-05-16T05:39:20;101850.00;;;20.87;72.13
4705;BME280;2366;51.332;6.610;2023-05-16T05:41:46;101841.88;;;20.15;74.44
4705;BME280;2366;51.332;6.610;2023-05-16T05:44:11;101845.09;;;20.50;72.69
4705;BME280;2366;51.332;6.610;2023-05-16T05:46:37;101845.34;;;20.68;73.27
4705;BME280;2366;51.332;6.610;2023-05-16T05:49:02;101848.66;;;21.03;72.40
4705;BME280;2366;51.332;6.610;2023-05-16T05:51:28;101851.13;;;21.46;77.22
4705;BME280;2366;51.332;6.610;2023-05-16T05:53:53;101852.63;;;21.80;69.27
4705;BME280;2366;51.332;6.610;2023-05-16T05:56:20;101852.47;;;21.91;72.20
4705;BME280;2366;51.332;6.610;2023-05-16T05:58:45;101855.28;;;21.29;70.38
4705;BME280;2366;51.332;6.610;2023-05-16T06:01:11;101855.38;;;21.49;54.98
4705;BME280;2366;51.332;6.610;2023-05-16T06:03:36;101856.63;;;22.34;44.63
4705;BME280;2366;51.332;6.610;2023-05-16T06:06:03;101861.47;;;23.62;41.31
4705;BME280;2366;51.332;6.610;2023-05-16T06:08:28;101863.94;;;23.28;39.66
4705;BME280;2366;51.332;6.610;2023-05-16T06:10:54;101859.13;;;23.77;37.64
4705;BME280;2366;51.332;6.610;2023-05-16T06:13:20;101869.88;;;24.05;36.56
4705;BME280;2366;51.332;6.610;2023-05-16T06:15:52;101865.25;;;23.69;37.34
4705;BME280;2366;51.332;6.610;2023-05-16T06:18:18;101875.75;;;24.00;36.26
4705;BME280;2366;51.332;6.610;2023-05-16T06:20:43;101864.97;;;24.44;35.37
4705;BME280;2366;51.332;6.610;2023-05-16T06:23:09;101867.84;;;24.43;35.12
4705;BME280;2366;51.332;6.610;2023-05-16T06:25:34;101867.09;;;23.96;35.57
4705;BME280;2366;51.332;6.610;2023-05-16T06:28:00;101867.78;;;24.16;37.02
4705;BME280;2366;51.332;6.610;2023-05-16T06:30:25;101870.88;;;23.86;36.68
4705;BME280;2366;51.332;6.610;2023-05-16T06:32:50;101873.72;;;23.01;37.15
4705;BME280;2366;51.332;6.610;2023-05-16T06:35:16;101874.25;;;23.42;34.50
4705;BME280;2366;51.332;6.610;2023-05-16T06:37:41;101878.63;;;22.59;36.81
4705;BME280;2366;51.332;6.610;2023-05-16T06:40:07;101879.16;;;22.72;38.44
4705;BME280;2366;51.332;6.610;2023-05-16T06:42:32;101878.09;;;21.46;38.40
4705;BME280;2366;51.332;6.610;2023-05-16T06:44:57;101889.00;;;21.95;38.13
4705;BME280;2366;51.332;6.610;2023-05-16T06:47:23;101886.22;;;23.40;36.49
4705;BME280;2366;51.332;6.610;2023-05-16T06:49:49;101882.94;;;24.09;34.76
4705;BME280;2366;51.332;6.610;2023-05-16T06:52:15;101892.81;;;24.72;33.86
4705;BME280;2366;51.332;6.610;2023-05-16T06:54:40;101891.03;;;23.73;35.60
4705;BME280;2366;51.332;6.610;2023-05-16T06:57:06;101889.03;;;24.65;34.15
4705;BME280;2366;51.332;6.610;2023-05-16T06:59:33;101892.53;;;24.22;35.28
4705;BME280;2366;51.332;6.610;2023-05-16T07:01:59;101884.22;;;25.37;34.09
4705;BME280;2366;51.332;6.610;2023-05-16T07:04:25;101886.97;;;26.46;29.86
4705;BME280;2366;51.332;6.610;2023-05-16T07:06:50;101897.97;;;26.93;30.91
4705;BME280;2366;51.332;6.610;2023-05-16T07:09:15;101885.41;;;27.88;29.66
4705;BME280;2366;51.332;6.610;2023-05-16T07:11:41;101881.97;;;24.98;32.22
4705;BME280;2366;51.332;6.610;2023-05-16T07:14:06;101885.81;;;21.30;37.37
4705;BME280;2366;51.332;6.610;2023-05-16T07:16:32;101885.44;;;21.04;37.28
4705;BME280;2366;51.332;6.610;2023-05-16T07:18:57;101896.38;;;20.28;38.76
4705;BME280;2366;51.332;6.610;2023-05-16T07:21:22;101888.28;;;23.18;35.83
4705;BME280;2366;51.332;6.610;2023-05-16T07:23:48;101887.41;;;21.83;35.24
4705;BME280;2366;51.332;6.610;2023-05-16T07:26:13;101896.31;;;21.54;38.30
4705;BME280;2366;51.332;6.610;2023-05-16T07:28:38;101889.91;;;23.94;34.08
4705;BME280;2366;51.332;6.610;2023-05-16T07:31:04;101902.97;;;25.65;31.29
4705;BME280;2366;51.332;6.610;2023-05-16T07:33:30;101899.41;;;26.48;30.42
4705;BME280;2366;51.332;6.610;2023-05-16T07:35:56;101900.31;;;27.60;28.33
4705;BME280;2366;51.332;6.610;2023-05-16T07:38:21;101911.06;;;28.16;27.94
4705;BME280;2366;51.332;6.610;2023-05-16T07:40:47;101898.06;;;28.26;28.23
4705;BME280;2366;51.332;6.610;2023-05-16T07:43:12;101893.25;;;29.04;25.57
4705;BME280;2366;51.332;6.610;2023-05-16T07:45:37;101907.53;;;26.89;26.74
4705;BME280;2366;51.332;6.610;2023-05-16T07:48:03;101890.56;;;26.30;27.75
4705;BME280;2366;51.332;6.610;2023-05-16T07:50:28;101884.88;;;27.53;26.12
4705;BME280;2366;51.332;6.610;2023-05-16T07:52:54;101894.91;;;27.04;28.81
4705;BME280;2366;51.332;6.610;2023-05-16T07:55:19;101897.66;;;24.25;31.29
4705;BME280;2366;51.332;6.610;2023-05-16T07:57:46;101894.50;;;21.74;33.13
4705;BME280;2366;51.332;6.610;2023-05-16T08:00:12;101898.84;;;23.76;30.74
4705;BME280;2366;51.332;6.610;2023-05-16T08:02:38;101902.66;;;24.37;29.48
4705;BME280;2366;51.332;6.610;2023-05-16T08:05:05;101886.78;;;26.96;26.20
4705;BME280;2366;51.332;6.610;2023-05-16T08:07:31;101905.84;;;27.75;25.27
4705;BME280;2366;51.332;6.610;2023-05-16T08:09:56;101902.88;;;27.62;25.38
4705;BME280;2366;51.332;6.610;2023-05-16T08:12:23;101903.22;;;27.98;24.95
4705;BME280;2366;51.332;6.610;2023-05-16T08:14:48;101899.88;;;28.57;24.69
4705;BME280;2366;51.332;6.610;2023-05-16T08:17:14;101894.59;;;25.93;26.43
4705;BME280;2366;51.332;6.610;2023-05-16T08:19:39;101898.84;;;23.76;29.07
4705;BME280;2366;51.332;6.610;2023-05-16T08:22:06;101888.16;;;22.04;32.45
4705;BME280;2366;51.332;6.610;2023-05-16T08:24:31;101903.13;;;23.79;32.41
4705;BME280;2366;51.332;6.610;2023-05-16T08:26:59;101899.56;;;26.22;29.83
4705;BME280;2366;51.332;6.610;2023-05-16T08:29:24;101899.75;;;26.29;28.49
4705;BME280;2366;51.332;6.610;2023-05-16T08:31:50;101898.44;;;24.53;30.64
4705;BME280;2366;51.332;6.610;2023-05-16T08:34:16;101904.19;;;23.31;33.33
4705;BME280;2366;51.332;6.610;2023-05-16T08:36:41;101892.94;;;22.88;33.35
4705;BME280;2366;51.332;6.610;2023-05-16T08:39:07;101897.72;;;24.33;31.61
4705;BME280;2366;51.332;6.610;2023-05-16T08:41:34;101910.28;;;25.65;28.12
4705;BME280;2366;51.332;6.610;2023-05-16T08:44:00;101899.75;;;26.61;26.02
4705;BME280;2366;51.332;6.610;2023-05-16T08:46:27;101898.84;;;27.89;24.64
4705;BME280;2366;51.332;6.610;2023-05-16T08:48:53;101906.91;;;27.74;24.09
4705;BME280;2366;51.332;6.610;2023-05-16T08:51:24;101896.84;;;23.13;28.70
4705;BME280;2366;51.332;6.610;2023-05-16T08:54:02;101903.66;;;25.67;26.79
4705;BME280;2366;51.332;6.610;2023-05-16T08:56:28;101898.84;;;26.94;25.06
4705;BME280;2366;51.332;6.610;2023-05-16T08:58:54;101902.78;;;28.10;24.59
4705;BME280;2366;51.332;6.610;2023-05-16T09:01:23;101905.09;;;28.97;23.10
4705;BME280;2366;51.332;6.610;2023-05-16T09:03:49;101899.06;;;28.25;22.86
4705;BME280;2366;51.332;6.610;2023-05-16T09:06:15;101898.56;;;27.36;23.36
4705;BME280;2366;51.332;6.610;2023-05-16T09:08:41;101907.06;;;28.27;24.79
4705;BME280;2366;51.332;6.610;2023-05-16T09:11:07;101896.03;;;25.28;26.28
4705;BME280;2366;51.332;6.610;2023-05-16T09:13:33;101890.34;;;23.06;29.66
4705;BME280;2366;51.332;6.610;2023-05-16T09:16:15;101891.41;;;21.98;31.57
4705;BME280;2366;51.332;6.610;2023-05-16T09:18:42;101895.13;;;24.05;31.49
4705;BME280;2366;51.332;6.610;2023-05-16T09:21:09;101897.28;;;23.46;30.77
4705;BME280;2366;51.332;6.610;2023-05-16T09:23:35;101896.78;;;23.33;31.83
4705;BME280;2366;51.332;6.610;2023-05-16T09:26:01;101891.28;;;22.48;32.94
4705;BME280;2366;51.332;6.610;2023-05-16T09:28:28;101899.94;;;22.71;33.67
4705;BME280;2366;51.332;6.610;2023-05-16T09:30:54;101885.88;;;22.09;34.90
4705;BME280;2366;51.332;6.610;2023-05-16T09:33:23;101888.09;;;21.65;35.65
4705;BME280;2366;51.332;6.610;2023-05-16T09:35:58;101888.63;;;20.56;36.99
4705;BME280;2366;51.332;6.610;2023-05-16T09:38:25;101884.63;;;20.50;38.22
4705;BME280;2366;51.332;6.610;2023-05-16T09:40:52;101890.59;;;20.53;38.45
4705;BME280;2366;51.332;6.610;2023-05-16T09:43:23;101885.84;;;21.90;35.92
4705;BME280;2366;51.332;6.610;2023-05-16T09:45:49;101894.47;;;24.11;30.32
4705;BME280;2366;51.332;6.610;2023-05-16T09:48:15;101893.56;;;26.02;28.06
4705;BME280;2366;51.332;6.610;2023-05-16T09:50:49;101887.91;;;27.58;26.08
4705;BME280;2366;51.332;6.610;2023-05-16T09:53:28;101886.78;;;28.30;25.96
4705;BME280;2366;51.332;6.610;2023-05-16T09:58:30;101885.69;;;27.14;26.12
4705;BME280;2366;51.332;6.610;2023-05-16T10:00:57;101882.31;;;25.72;26.09
4705;BME280;2366;51.332;6.610;2023-05-16T10:03:24;101871.97;;;23.93;29.81
4705;BME280;2366;51.332;6.610;2023-05-16T10:05:50;101888.75;;;23.51;31.22
4705;BME280;2366;51.332;6.610;2023-05-16T10:08:18;101887.41;;;25.75;26.51
4705;BME280;2366;51.332;6.610;2023-05-16T10:10:45;101872.00;;;25.41;25.73
4705;BME280;2366;51.332;6.610;2023-05-16T10:13:12;101871.72;;;24.40;30.19
4705;BME280;2366;51.332;6.610;2023-05-16T10:15:38;101878.22;;;24.29;28.84
4705;BME280;2366;51.332;6.610;2023-05-16T10:18:06;101879.19;;;23.19;29.76
4705;BME280;2366;51.332;6.610;2023-05-16T10:20:36;101884.38;;;21.66;31.81
4705;BME280;2366;51.332;6.610;2023-05-16T10:23:03;101883.28;;;21.38;32.55
4705;BME280;2366;51.332;6.610;2023-05-16T10:25:35;101890.22;;;21.00;34.03
4705;BME280;2366;51.332;6.610;2023-05-16T10:28:03;101897.56;;;20.35;35.41
4705;BME280;2366;51.332;6.610;2023-05-16T10:30:32;101902.13;;;19.91;35.72
4705;BME280;2366;51.332;6.610;2023-05-16T10:32:58;101906.09;;;19.42;38.32
4705;BME280;2366;51.332;6.610;2023-05-16T10:35:26;101911.66;;;18.23;44.51
4705;BME280;2366;51.332;6.610;2023-05-16T10:37:52;101914.78;;;16.66;45.99
4705;BME280;2366;51.332;6.610;2023-05-16T10:40:18;101927.75;;;16.32;47.56
4705;BME280;2366;51.332;6.610;2023-05-16T10:43:01;101921.50;;;16.19;49.28
4705;BME280;2366;51.332;6.610;2023-05-16T10:45:28;101916.59;;;15.98;49.46
4705;BME280;2366;51.332;6.610;2023-05-16T10:50:44;101909.09;;;17.48;49.94
4705;BME280;2366;51.332;6.610;2023-05-16T10:53:31;101907.72;;;18.40;47.67
4705;BME280;2366;51.332;6.610;2023-05-16T11:01:21;101889.19;;;19.85;42.26
4705;BME280;2366;51.332;6.610;2023-05-16T11:06:48;101890.41;;;19.47;40.84
4705;BME280;2366;51.332;6.610;2023-05-16T11:09:22;101887.13;;;19.09;39.59
4705;BME280;2366;51.332;6.610;2023-05-16T11:12:01;101879.81;;;19.12;41.97
4705;BME280;2366;51.332;6.610;2023-05-16T11:17:09;101888.13;;;19.31;37.38
4705;BME280;2366;51.332;6.610;2023-05-16T11:24:59;101886.34;;;20.51;36.25
4705;BME280;2366;51.332;6.610;2023-05-16T11:27:43;101882.97;;;20.70;36.17
4705;BME280;2366;51.332;6.610;2023-05-16T11:32:38;101878.63;;;20.79;35.11
4705;BME280;2366;51.332;6.610;2023-05-16T11:35:07;101877.13;;;20.53;36.03
4705;BME280;2366;51.332;6.610;2023-05-16T11:37:33;101883.94;;;19.61;37.47
4705;BME280;2366;51.332;6.610;2023-05-16T11:40:04;101897.19;;;19.30;38.45
4705;BME280;2366;51.332;6.610;2023-05-16T11:42:43;101895.56;;;18.82;40.87
4705;BME280;2366;51.332;6.610;2023-05-16T11:45:15;101908.00;;;18.95;39.23
4705;BME280;2366;51.332;6.610;2023-05-16T11:47:42;101908.78;;;19.19;39.02
4705;BME280;2366;51.332;6.610;2023-05-16T11:50:13;101927.81;;;18.94;40.68
4705;BME280;2366;51.332;6.610;2023-05-16T11:52:39;101921.56;;;17.98;44.18
4705;BME280;2366;51.332;6.610;2023-05-16T11:55:08;101921.16;;;17.79;46.77
4705;BME280;2366;51.332;6.610;2023-05-16T11:57:37;101920.81;;;17.47;48.30
4705;BME280;2366;51.332;6.610;2023-05-16T12:00:17;101929.19;;;17.16;48.88
4705;BME280;2366;51.332;6.610;2023-05-16T12:02:44;101919.19;;;17.44;48.64
4705;BME280;2366;51.332;6.610;2023-05-16T12:05:10;101908.28;;;17.84;46.96
4705;BME280;2366;51.332;6.610;2023-05-16T12:07:36;101902.81;;;18.10;44.76
4705;BME280;2366;51.332;6.610;2023-05-16T12:10:09;101890.06;;;17.89;38.52
4705;BME280;2366;51.332;6.610;2023-05-16T12:12:35;101892.78;;;18.00;36.84
4705;BME280;2366;51.332;6.610;2023-05-16T12:15:07;101890.41;;;18.09;38.70
4705;BME280;2366;51.332;6.610;2023-05-16T12:17:38;101882.56;;;18.41;39.75
4705;BME280;2366;51.332;6.610;2023-05-16T12:20:04;101880.03;;;18.39;36.70
4705;BME280;2366;51.332;6.610;2023-05-16T12:22:31;101888.50;;;18.68;37.26
4705;BME280;2366;51.332;6.610;2023-05-16T12:25:21;101880.66;;;18.90;36.41
4705;BME280;2366;51.332;6.610;2023-05-16T12:27:46;101873.06;;;18.95;36.76
4705;BME280;2366;51.332;6.610;2023-05-16T12:30:12;101876.38;;;19.32;34.73
4705;BME280;2366;51.332;6.610;2023-05-16T12:32:37;101880.16;;;19.52;34.80
4705;BME280;2366;51.332;6.610;2023-05-16T12:35:03;101872.84;;;19.20;32.72
4705;BME280;2366;51.332;6.610;2023-05-16T12:37:28;101886.03;;;18.90;32.53
4705;BME280;2366;51.332;6.610;2023-05-16T12:40:00;101888.50;;;18.57;31.85
4705;BME280;2366;51.332;6.610;2023-05-16T12:42:26;101882.38;;;18.20;32.65
4705;BME280;2366;51.332;6.610;2023-05-16T12:44:54;101883.00;;;17.99;32.91
4705;BME280;2366;51.332;6.610;2023-05-16T12:47:20;101881.97;;;18.37;33.60
4705;BME280;2366;51.332;6.610;2023-05-16T12:49:47;101880.06;;;18.62;33.12
4705;BME280;2366;51.332;6.610;2023-05-16T12:52:20;101892.88;;;18.94;32.94
4705;BME280;2366;51.332;6.610;2023-05-16T12:54:48;101882.28;;;18.68;33.10
4705;BME280;2366;51.332;6.610;2023-05-16T12:57:13;101878.72;;;18.92;34.07
4705;BME280;2366;51.332;6.610;2023-05-16T12:59:40;101883.34;;;19.01;34.03
4705;BME280;2366;51.332;6.610;2023-05-16T13:02:06;101882.13;;;19.16;34.04
4705;BME280;2366;51.332;6.610;2023-05-16T13:04:31;101888.41;;;19.94;34.09
4705;BME280;2366;51.332;6.610;2023-05-16T13:06:57;101886.50;;;19.85;32.10
4705;BME280;2366;51.332;6.610;2023-05-16T13:09:22;101890.66;;;19.78;32.91
4705;BME280;2366;51.332;6.610;2023-05-16T13:11:48;101890.38;;;19.92;32.37
4705;BME280;2366;51.332;6.610;2023-05-16T13:14:17;101892.34;;;19.90;33.77
4705;BME280;2366;51.332;6.610;2023-05-16T13:16:43;101898.91;;;20.08;32.58
4705;BME280;2366;51.332;6.610;2023-05-16T13:19:09;101884.59;;;20.29;34.41
4705;BME280;2366;51.332;6.610;2023-05-16T13:21:34;101888.19;;;20.50;32.62
4705;BME280;2366;51.332;6.610;2023-05-16T13:23:59;101884.25;;;20.55;32.76
4705;BME280;2366;51.332;6.610;2023-05-16T13:26:25;101894.47;;;20.72;33.51
4705;BME280;2366;51.332;6.610;2023-05-16T13:28:51;101893.94;;;20.78;32.04
4705;BME280;2366;51.332;6.610;2023-05-16T13:31:18;101900.13;;;20.37;32.33
4705;BME280;2366;51.332;6.610;2023-05-16T13:33:43;101896.03;;;20.21;32.59
4705;BME280;2366;51.332;6.610;2023-05-16T13:36:09;101900.22;;;19.48;33.23
4705;BME280;2366;51.332;6.610;2023-05-16T13:38:35;101897.25;;;18.95;34.74
4705;BME280;2366;51.332;6.610;2023-05-16T13:41:00;101896.16;;;18.97;36.07
4705;BME280;2366;51.332;6.610;2023-05-16T13:43:26;101894.59;;;19.40;35.62
4705;BME280;2366;51.332;6.610;2023-05-16T13:45:51;101898.50;;;19.69;35.82
4705;BME280;2366;51.332;6.610;2023-05-16T13:48:17;101888.44;;;19.83;35.28